»·PEaware :: SWA301 KPHX-KBUR

SWA301 :: KPHX-KBUR

FLIGHT INFORMATION

Flight Status: Arrived
Operator:
Southwest Airlines
More flights by this operator :: More flights under this callsign
Pilot: Brian T. (24242)
Aircraft: BOEING 737-800
(B738)
More flights by this aircraft type
Origin: KPHX Phoenix Sky Harbor Intl
United States
Destination: KBUR Bob Hope-Burbank
United States
More flights between these airports :: More routes between these airports
Route: +ZEPER1 JKPOT EED JANNY5
File this flight plan on PilotEdge
Remarks: Flying in VR (so give me a minute on those freq changes).
Altitude:
(Current/Filed)
34,000ft
Speed:
(Current/Filed)
460kts
Departed: 01-Feb-20 07:17 PM
Arrived: 01-Feb-20 08:24 PM
Distance/Time
Traveled:
319nm/1:06
Distance/Time
To Go:
Arrived

Flight Plot

Page will automatically refresh every two minutes.

Flight plan parsing failed; only flown route is shown


Map Options




Map Legend


Flown Route
Filed Route
Departure Airport
Arrival Airport
Navaid (VOR, NDB)
Fix

Horizontal Profiles

Position Reports

Time Latitude Longitude Heading Altitude Ground
Speed
01-Feb-20 18:29 33.434100 -111.993666 289 1145ft 0kts
01-Feb-20 18:30 33.434100 -111.993666 289 1145ft 0kts
01-Feb-20 18:31 33.434100 -111.993666 289 1145ft 0kts
01-Feb-20 18:32 33.434100 -111.993666 289 1145ft 0kts
01-Feb-20 18:33 33.434100 -111.993666 289 1145ft 0kts
01-Feb-20 18:34 33.434100 -111.993666 289 1145ft 0kts
01-Feb-20 18:35 33.434100 -111.993666 289 1145ft 0kts
01-Feb-20 18:36 33.434100 -111.993666 289 1145ft 0kts
01-Feb-20 18:37 33.434100 -111.993666 289 1145ft 0kts
01-Feb-20 18:38 33.434100 -111.993666 289 1145ft 0kts
01-Feb-20 18:39 33.434100 -111.993666 289 1145ft 0kts
01-Feb-20 18:40 33.434100 -111.993666 289 1145ft 0kts
01-Feb-20 18:41 33.434100 -111.993666 289 1145ft 0kts
01-Feb-20 18:42 33.434100 -111.993666 289 1145ft 0kts
01-Feb-20 18:42 33.434100 -111.993666 289 1145ft 0kts
01-Feb-20 18:44 33.434100 -111.993666 289 1145ft 0kts
01-Feb-20 18:45 33.434100 -111.993666 289 1145ft 0kts
01-Feb-20 18:45 33.434100 -111.993666 289 1145ft 0kts
01-Feb-20 18:46 33.434100 -111.993666 289 1145ft 0kts
01-Feb-20 18:48 33.434100 -111.993666 289 1145ft 0kts
01-Feb-20 18:48 33.434100 -111.993666 289 1145ft 0kts
01-Feb-20 18:49 33.434100 -111.993666 289 1145ft 0kts
01-Feb-20 18:50 33.434100 -111.993666 289 1145ft 0kts
01-Feb-20 18:51 33.434100 -111.993666 289 1145ft 0kts
01-Feb-20 18:52 33.434100 -111.993666 289 1145ft 0kts
01-Feb-20 18:53 33.434100 -111.993666 289 1145ft 0kts
01-Feb-20 18:54 33.434100 -111.993666 289 1145ft 0kts
01-Feb-20 18:55 33.434100 -111.993666 289 1145ft 0kts
01-Feb-20 18:56 33.434100 -111.993666 289 1145ft 0kts
01-Feb-20 18:57 33.434100 -111.993666 289 1145ft 0kts
01-Feb-20 18:58 33.434100 -111.993666 289 1145ft 0kts
01-Feb-20 18:59 33.434100 -111.993666 289 1145ft 0kts
01-Feb-20 19:00 33.434100 -111.993666 289 1145ft 0kts
01-Feb-20 19:01 33.434100 -111.993666 289 1145ft 0kts
01-Feb-20 19:02 33.434100 -111.993666 289 1145ft 0kts
01-Feb-20 19:03 33.434100 -111.993666 289 1145ft 0kts
01-Feb-20 19:04 33.434073 -111.993574 287 1145ft 2kts
01-Feb-20 19:05 33.434267 -111.993072 181 1145ft 1kts
01-Feb-20 19:06 33.433592 -111.993082 179 1145ft 0kts
01-Feb-20 19:07 33.433591 -111.993082 179 1145ft 0kts
01-Feb-20 19:08 33.433591 -111.993082 179 1145ft 0kts
01-Feb-20 19:09 33.433122 -111.993108 194 1145ft 10kts
01-Feb-20 19:10 33.432842 -111.998636 270 1145ft 18kts
01-Feb-20 19:11 33.432821 -112.004279 271 1145ft 15kts
01-Feb-20 19:12 33.432886 -112.010375 269 1145ft 17kts
01-Feb-20 19:13 33.432907 -112.016026 271 1145ft 19kts
01-Feb-20 19:14 33.432880 -112.021819 270 1145ft 15kts
01-Feb-20 19:15 33.432219 -112.027000 183 1145ft 15kts
01-Feb-20 19:16 33.431091 -112.021662 90 1145ft 85kts
01-Feb-20 19:17 33.431330 -111.964802 85 2649ft 205kts
01-Feb-20 19:18 33.437389 -111.878204 81 5028ft 273kts
01-Feb-20 19:19 33.497922 -111.839964 358 8265ft 286kts
01-Feb-20 19:20 33.579041 -111.840891 4 10835ft 318kts
01-Feb-20 19:21 33.676269 -111.841025 354 12746ft 367kts
01-Feb-20 19:22 33.764630 -111.901199 306 15532ft 391kts
01-Feb-20 19:23 33.829802 -112.008843 306 18131ft 406kts
01-Feb-20 19:24 33.897605 -112.119962 306 20485ft 420kts
01-Feb-20 19:25 33.967655 -112.235164 306 22598ft 433kts
01-Feb-20 19:26 34.043561 -112.350030 317 24515ft 445kts
01-Feb-20 19:27 34.139690 -112.446931 320 26229ft 456kts
01-Feb-20 19:28 34.238259 -112.546224 320 27733ft 468kts
01-Feb-20 19:29 34.338789 -112.647815 319 29158ft 476kts
01-Feb-20 19:30 34.440874 -112.751274 319 30647ft 479kts
01-Feb-20 19:31 34.542075 -112.854199 318 32523ft 470kts
01-Feb-20 19:32 34.638037 -112.956847 309 34369ft 455kts
01-Feb-20 19:33 34.694912 -113.093522 282 34393ft 459kts
01-Feb-20 19:34 34.707152 -113.247277 273 34257ft 457kts
01-Feb-20 19:35 34.715285 -113.401839 273 34210ft 457kts
01-Feb-20 19:36 34.723259 -113.556186 273 34209ft 458kts
01-Feb-20 19:37 34.731040 -113.710675 273 34210ft 458kts
01-Feb-20 19:38 34.738619 -113.865001 273 34210ft 457kts
01-Feb-20 19:39 34.746039 -114.020038 273 34210ft 458kts
01-Feb-20 19:40 34.753247 -114.174734 273 34210ft 458kts
01-Feb-20 19:41 34.760247 -114.329134 273 34210ft 458kts
01-Feb-20 19:42 34.767147 -114.483882 272 34210ft 458kts
01-Feb-20 19:43 34.769819 -114.638851 271 34210ft 458kts
01-Feb-20 19:44 34.773254 -114.793765 271 34210ft 458kts
01-Feb-20 19:45 34.776480 -114.948699 271 34210ft 458kts
01-Feb-20 19:46 34.779508 -115.103492 271 34210ft 457kts
01-Feb-20 19:47 34.782336 -115.257946 270 34210ft 457kts
01-Feb-20 19:48 34.784975 -115.412734 270 34210ft 457kts
01-Feb-20 19:49 34.787418 -115.567409 270 34210ft 457kts
01-Feb-20 19:50 34.789652 -115.721478 270 32852ft 461kts
01-Feb-20 19:51 34.791666 -115.876242 269 29909ft 449kts
01-Feb-20 19:52 34.794428 -116.028154 270 27651ft 441kts
01-Feb-20 19:53 34.797068 -116.175353 269 25315ft 425kts
01-Feb-20 19:54 34.795704 -116.318296 265 24287ft 429kts
01-Feb-20 19:55 34.790660 -116.463854 266 24284ft 426kts
01-Feb-20 19:56 34.783048 -116.604827 261 23299ft 418kts
01-Feb-20 19:57 34.769260 -116.744755 261 22304ft 412kts
01-Feb-20 19:58 34.755421 -116.885917 261 22283ft 416kts
01-Feb-20 19:59 34.741089 -117.027329 261 22284ft 417kts
01-Feb-20 20:00 34.726638 -117.169027 261 22284ft 416kts
01-Feb-20 20:01 34.711968 -117.311184 261 22284ft 416kts
01-Feb-20 20:02 34.697331 -117.451455 261 21323ft 403kts
01-Feb-20 20:03 34.682937 -117.587661 262 18807ft 399kts
01-Feb-20 20:04 34.668665 -117.720077 262 16513ft 379kts
01-Feb-20 20:05 34.655195 -117.846635 262 14287ft 374kts
01-Feb-20 20:06 34.641147 -117.974209 262 12812ft 374kts
01-Feb-20 20:07 34.624150 -118.097666 255 11214ft 337kts
01-Feb-20 20:08 34.599969 -118.205396 255 10202ft 304kts
01-Feb-20 20:09 34.577740 -118.305122 255 8790ft 297kts
01-Feb-20 20:10 34.556007 -118.399453 249 8087ft 271kts
01-Feb-20 20:11 34.501891 -118.466120 222 6913ft 272kts
01-Feb-20 20:12 34.444501 -118.526164 222 6051ft 265kts
01-Feb-20 20:13 34.385817 -118.587629 222 6030ft 268kts
01-Feb-20 20:14 34.330184 -118.646598 222 6014ft 238kts
01-Feb-20 20:15 34.280169 -118.700320 221 5992ft 233kts
01-Feb-20 20:16 34.231279 -118.693178 114 5201ft 202kts
01-Feb-20 20:17 34.207994 -118.628831 111 3531ft 200kts
01-Feb-20 20:18 34.200227 -118.567399 89 2992ft 176kts
01-Feb-20 20:19 34.199534 -118.507740 89 2990ft 177kts
01-Feb-20 20:20 34.198911 -118.452414 89 2155ft 150kts
01-Feb-20 20:21 34.198461 -118.404290 91 1375ft 142kts
01-Feb-20 20:22 34.197769 -118.357686 90 788ft 105kts
01-Feb-20 20:23 34.197173 -118.350479 256 788ft 2kts
01-Feb-20 20:24 34.197151 -118.351933 268 788ft 3kts
01-Feb-20 20:25 34.196868 -118.352386 180 788ft 0kts
01-Feb-20 20:26 34.196845 -118.352386 180 788ft 0kts
01-Feb-20 20:27 34.196845 -118.352386 180 788ft 0kts
01-Feb-20 20:28 34.196845 -118.352386 180 788ft 0kts
01-Feb-20 20:29 34.196845 -118.352386 180 788ft 0kts
01-Feb-20 20:30 34.196845 -118.352386 180 788ft 0kts
01-Feb-20 20:31 34.196845 -118.352386 180 788ft 0kts
01-Feb-20 20:32 34.196845 -118.352386 180 788ft 0kts
01-Feb-20 20:33 34.196845 -118.352386 180 788ft 0kts
01-Feb-20 20:34 34.196845 -118.352386 180 788ft 0kts
01-Feb-20 20:35 34.196845 -118.352386 180 788ft 0kts
01-Feb-20 20:36 34.196845 -118.352386 180 788ft 0kts
01-Feb-20 20:37 34.196845 -118.352386 180 788ft 0kts

Navigation Log

Ident Type
Flight plan parsing failed, navigation log unavailable